"WATCHING THE WEATHER TO PROTECT LIFE AND PROPERTY"


THERE ARE CURRENTLY NO WATCHES NOR WARNINGS


Aviation
Satellite (InfraRed)


TNCA 291500Z 07010KT 9999 BKN020 30/24 Q1011 NOSIG
TNCB 291455Z AUTO 11012KT 080V160 9999 FEW023/// 31/24 Q1010
TNCC 291500Z 10012KT 9999 SCT022TCU 30/23 Q1011 NOSIG=